sensor_id;sensor_type;location;lat;lon;timestamp;P1;durP1;ratioP1;P2;durP2;ratioP2
11338;SDS011;5724;42.684;23.252;2023-04-03T00:01:15;1.37;;;1.27;;
11338;SDS011;5724;42.684;23.252;2023-04-03T00:03:42;1.37;;;1.27;;
11338;SDS011;5724;42.684;23.252;2023-04-03T00:06:08;1.40;;;1.27;;
11338;SDS011;5724;42.684;23.252;2023-04-03T00:08:36;1.33;;;1.00;;
11338;SDS011;5724;42.684;23.252;2023-04-03T00:11:02;1.20;;;1.20;;
11338;SDS011;5724;42.684;23.252;2023-04-03T00:13:28;1.03;;;1.00;;
11338;SDS011;5724;42.684;23.252;2023-04-03T00:15:54;1.60;;;1.13;;
11338;SDS011;5724;42.684;23.252;2023-04-03T00:18:20;1.10;;;1.10;;
11338;SDS011;5724;42.684;23.252;2023-04-03T00:20:46;0.90;;;0.90;;
11338;SDS011;5724;42.684;23.252;2023-04-03T00:23:12;1.53;;;1.10;;
11338;SDS011;5724;42.684;23.252;2023-04-03T00:25:37;1.80;;;0.80;;
11338;SDS011;5724;42.684;23.252;2023-04-03T00:28:03;0.90;;;0.90;;
11338;SDS011;5724;42.684;23.252;2023-04-03T00:30:29;0.90;;;0.90;;
11338;SDS011;5724;42.684;23.252;2023-04-03T00:32:56;1.20;;;1.10;;
11338;SDS011;5724;42.684;23.252;2023-04-03T00:35:22;1.13;;;1.13;;
11338;SDS011;5724;42.684;23.252;2023-04-03T00:37:50;0.87;;;0.87;;
11338;SDS011;5724;42.684;23.252;2023-04-03T00:40:17;1.47;;;1.20;;
11338;SDS011;5724;42.684;23.252;2023-04-03T00:42:43;1.03;;;1.03;;
11338;SDS011;5724;42.684;23.252;2023-04-03T00:47:36;1.07;;;1.07;;
11338;SDS011;5724;42.684;23.252;2023-04-03T00:50:02;0.90;;;0.90;;
11338;SDS011;5724;42.684;23.252;2023-04-03T00:52:29;1.00;;;1.00;;
11338;SDS011;5724;42.684;23.252;2023-04-03T00:54:57;1.00;;;1.00;;
11338;SDS011;5724;42.684;23.252;2023-04-03T00:57:28;0.87;;;0.80;;
11338;SDS011;5724;42.684;23.252;2023-04-03T00:59:57;1.03;;;0.97;;
11338;SDS011;5724;42.684;23.252;2023-04-03T01:02:26;1.20;;;1.10;;
11338;SDS011;5724;42.684;23.252;2023-04-03T01:04:52;1.00;;;0.90;;
11338;SDS011;5724;42.684;23.252;2023-04-03T01:07:18;1.10;;;1.10;;
11338;SDS011;5724;42.684;23.252;2023-04-03T01:09:49;1.00;;;1.00;;
11338;SDS011;5724;42.684;23.252;2023-04-03T01:12:22;0.83;;;0.83;;
11338;SDS011;5724;42.684;23.252;2023-04-03T01:14:51;1.33;;;1.23;;
11338;SDS011;5724;42.684;23.252;2023-04-03T01:17:37;1.63;;;1.10;;
11338;SDS011;5724;42.684;23.252;2023-04-03T01:23:24;1.80;;;1.70;;
11338;SDS011;5724;42.684;23.252;2023-04-03T01:25:57;2.00;;;1.90;;
11338;SDS011;5724;42.684;23.252;2023-04-03T01:28:24;3.03;;;2.70;;
11338;SDS011;5724;42.684;23.252;2023-04-03T01:33:37;3.13;;;2.93;;
11338;SDS011;5724;42.684;23.252;2023-04-03T01:36:04;4.20;;;2.90;;
11338;SDS011;5724;42.684;23.252;2023-04-03T01:38:30;3.63;;;3.30;;
11338;SDS011;5724;42.684;23.252;2023-04-03T01:40:56;9.77;;;8.77;;
11338;SDS011;5724;42.684;23.252;2023-04-03T01:43:21;6.90;;;6.30;;
11338;SDS011;5724;42.684;23.252;2023-04-03T01:45:47;2.60;;;2.40;;
11338;SDS011;5724;42.684;23.252;2023-04-03T01:48:14;3.10;;;1.97;;
11338;SDS011;5724;42.684;23.252;2023-04-03T01:50:40;1.80;;;1.70;;
11338;SDS011;5724;42.684;23.252;2023-04-03T01:53:06;1.70;;;1.60;;
11338;SDS011;5724;42.684;23.252;2023-04-03T01:55:31;1.77;;;1.67;;
11338;SDS011;5724;42.684;23.252;2023-04-03T01:57:57;1.63;;;1.60;;
11338;SDS011;5724;42.684;23.252;2023-04-03T02:00:22;2.07;;;1.97;;
11338;SDS011;5724;42.684;23.252;2023-04-03T02:02:48;1.73;;;1.63;;
11338;SDS011;5724;42.684;23.252;2023-04-03T02:05:13;2.07;;;1.70;;
11338;SDS011;5724;42.684;23.252;2023-04-03T02:07:39;2.37;;;2.03;;
11338;SDS011;5724;42.684;23.252;2023-04-03T02:10:05;1.67;;;1.67;;
11338;SDS011;5724;42.684;23.252;2023-04-03T02:12:30;1.63;;;1.53;;
11338;SDS011;5724;42.684;23.252;2023-04-03T02:14:56;1.63;;;1.60;;
11338;SDS011;5724;42.684;23.252;2023-04-03T02:17:21;2.60;;;2.50;;
11338;SDS011;5724;42.684;23.252;2023-04-03T02:19:47;3.00;;;2.90;;
11338;SDS011;5724;42.684;23.252;2023-04-03T02:22:12;3.97;;;3.00;;
11338;SDS011;5724;42.684;23.252;2023-04-03T02:24:38;2.60;;;2.50;;
11338;SDS011;5724;42.684;23.252;2023-04-03T02:27:05;2.97;;;2.77;;
11338;SDS011;5724;42.684;23.252;2023-04-03T02:29:31;2.50;;;2.40;;
11338;SDS011;5724;42.684;23.252;2023-04-03T02:31:56;3.43;;;1.80;;
11338;SDS011;5724;42.684;23.252;2023-04-03T02:34:21;2.43;;;1.70;;
11338;SDS011;5724;42.684;23.252;2023-04-03T02:36:47;1.43;;;1.43;;
11338;SDS011;5724;42.684;23.252;2023-04-03T02:39:12;2.03;;;1.63;;
11338;SDS011;5724;42.684;23.252;2023-04-03T02:41:38;2.90;;;2.10;;
11338;SDS011;5724;42.684;23.252;2023-04-03T02:44:04;2.70;;;2.40;;
11338;SDS011;5724;42.684;23.252;2023-04-03T02:46:31;2.43;;;2.33;;
11338;SDS011;5724;42.684;23.252;2023-04-03T02:48:57;3.03;;;2.40;;
11338;SDS011;5724;42.684;23.252;2023-04-03T02:51:22;2.60;;;2.40;;
11338;SDS011;5724;42.684;23.252;2023-04-03T02:53:49;3.47;;;3.27;;
11338;SDS011;5724;42.684;23.252;2023-04-03T02:56:15;2.80;;;2.60;;
11338;SDS011;5724;42.684;23.252;2023-04-03T02:58:42;2.87;;;2.43;;
11338;SDS011;5724;42.684;23.252;2023-04-03T03:01:08;2.13;;;2.03;;
11338;SDS011;5724;42.684;23.252;2023-04-03T03:03:33;2.27;;;2.07;;
11338;SDS011;5724;42.684;23.252;2023-04-03T03:08:54;3.17;;;1.90;;
11338;SDS011;5724;42.684;23.252;2023-04-03T03:11:20;2.20;;;2.10;;
11338;SDS011;5724;42.684;23.252;2023-04-03T03:13:46;1.87;;;1.77;;
11338;SDS011;5724;42.684;23.252;2023-04-03T03:16:11;2.07;;;1.93;;
11338;SDS011;5724;42.684;23.252;2023-04-03T03:18:36;2.80;;;2.60;;
11338;SDS011;5724;42.684;23.252;2023-04-03T03:21:02;2.80;;;2.60;;
11338;SDS011;5724;42.684;23.252;2023-04-03T03:23:29;2.60;;;2.40;;
11338;SDS011;5724;42.684;23.252;2023-04-03T03:26:01;2.80;;;2.60;;
11338;SDS011;5724;42.684;23.252;2023-04-03T03:28:31;3.27;;;2.93;;
11338;SDS011;5724;42.684;23.252;2023-04-03T03:30:57;3.20;;;2.33;;
11338;SDS011;5724;42.684;23.252;2023-04-03T03:33:23;2.90;;;2.70;;
11338;SDS011;5724;42.684;23.252;2023-04-03T03:35:49;3.40;;;2.73;;
11338;SDS011;5724;42.684;23.252;2023-04-03T03:38:14;3.53;;;3.07;;
11338;SDS011;5724;42.684;23.252;2023-04-03T03:40:40;3.40;;;3.10;;
11338;SDS011;5724;42.684;23.252;2023-04-03T03:43:05;3.20;;;3.00;;
11338;SDS011;5724;42.684;23.252;2023-04-03T03:45:31;3.43;;;3.23;;
11338;SDS011;5724;42.684;23.252;2023-04-03T03:47:56;3.73;;;3.43;;
11338;SDS011;5724;42.684;23.252;2023-04-03T03:50:22;5.13;;;3.53;;
11338;SDS011;5724;42.684;23.252;2023-04-03T03:52:47;4.70;;;4.03;;
11338;SDS011;5724;42.684;23.252;2023-04-03T03:55:13;3.87;;;3.60;;
11338;SDS011;5724;42.684;23.252;2023-04-03T03:57:38;4.00;;;3.47;;
11338;SDS011;5724;42.684;23.252;2023-04-03T04:00:04;12.03;;;6.27;;
11338;SDS011;5724;42.684;23.252;2023-04-03T04:02:30;18.63;;;10.57;;
11338;SDS011;5724;42.684;23.252;2023-04-03T04:04:56;15.57;;;9.20;;
11338;SDS011;5724;42.684;23.252;2023-04-03T04:07:21;25.33;;;12.30;;
11338;SDS011;5724;42.684;23.252;2023-04-03T04:09:47;16.20;;;11.53;;
11338;SDS011;5724;42.684;23.252;2023-04-03T04:12:12;10.87;;;9.13;;
11338;SDS011;5724;42.684;23.252;2023-04-03T04:14:37;17.87;;;10.97;;
11338;SDS011;5724;42.684;23.252;2023-04-03T04:17:03;18.67;;;11.60;;
11338;SDS011;5724;42.684;23.252;2023-04-03T04:19:28;19.87;;;12.03;;
11338;SDS011;5724;42.684;23.252;2023-04-03T04:21:54;19.90;;;11.60;;
11338;SDS011;5724;42.684;23.252;2023-04-03T04:24:19;19.03;;;12.03;;
11338;SDS011;5724;42.684;23.252;2023-04-03T04:26:45;16.23;;;11.20;;
11338;SDS011;5724;42.684;23.252;2023-04-03T04:29:10;16.47;;;10.07;;
11338;SDS011;5724;42.684;23.252;2023-04-03T04:31:36;12.93;;;8.67;;
11338;SDS011;5724;42.684;23.252;2023-04-03T04:34:01;13.27;;;10.80;;
11338;SDS011;5724;42.684;23.252;2023-04-03T04:36:27;14.17;;;10.90;;
11338;SDS011;5724;42.684;23.252;2023-04-03T04:38:52;11.90;;;8.57;;
11338;SDS011;5724;42.684;23.252;2023-04-03T04:41:21;20.83;;;11.20;;
11338;SDS011;5724;42.684;23.252;2023-04-03T04:43:48;14.60;;;7.90;;
11338;SDS011;5724;42.684;23.252;2023-04-03T04:46:14;8.50;;;7.33;;
11338;SDS011;5724;42.684;23.252;2023-04-03T04:48:40;10.60;;;7.93;;
11338;SDS011;5724;42.684;23.252;2023-04-03T04:51:06;9.83;;;7.40;;
11338;SDS011;5724;42.684;23.252;2023-04-03T04:53:31;14.80;;;7.20;;
11338;SDS011;5724;42.684;23.252;2023-04-03T04:55:58;15.43;;;9.00;;
11338;SDS011;5724;42.684;23.252;2023-04-03T04:58:23;17.37;;;12.50;;
11338;SDS011;5724;42.684;23.252;2023-04-03T05:00:49;16.03;;;9.00;;
11338;SDS011;5724;42.684;23.252;2023-04-03T05:03:15;18.90;;;8.53;;
11338;SDS011;5724;42.684;23.252;2023-04-03T05:05:40;12.93;;;7.83;;
11338;SDS011;5724;42.684;23.252;2023-04-03T05:08:06;10.70;;;7.50;;
11338;SDS011;5724;42.684;23.252;2023-04-03T05:10:33;15.37;;;7.20;;
11338;SDS011;5724;42.684;23.252;2023-04-03T05:12:59;8.43;;;6.43;;
11338;SDS011;5724;42.684;23.252;2023-04-03T05:15:24;10.93;;;6.73;;
11338;SDS011;5724;42.684;23.252;2023-04-03T05:17:50;7.50;;;5.73;;
11338;SDS011;5724;42.684;23.252;2023-04-03T05:20:16;7.93;;;5.60;;
11338;SDS011;5724;42.684;23.252;2023-04-03T05:22:42;4.57;;;4.17;;
11338;SDS011;5724;42.684;23.252;2023-04-03T05:25:07;6.10;;;4.60;;
11338;SDS011;5724;42.684;23.252;2023-04-03T05:27:33;9.03;;;4.07;;
11338;SDS011;5724;42.684;23.252;2023-04-03T05:29:59;4.53;;;4.23;;
11338;SDS011;5724;42.684;23.252;2023-04-03T05:32:25;6.43;;;5.33;;
11338;SDS011;5724;42.684;23.252;2023-04-03T05:34:52;6.47;;;4.83;;
11338;SDS011;5724;42.684;23.252;2023-04-03T05:37:18;6.50;;;5.53;;
11338;SDS011;5724;42.684;23.252;2023-04-03T05:39:44;6.20;;;5.23;;
11338;SDS011;5724;42.684;23.252;2023-04-03T05:42:09;8.27;;;4.73;;
11338;SDS011;5724;42.684;23.252;2023-04-03T05:44:36;6.20;;;4.70;;
11338;SDS011;5724;42.684;23.252;2023-04-03T05:47:02;5.83;;;4.67;;
11338;SDS011;5724;42.684;23.252;2023-04-03T05:49:28;5.07;;;4.67;;
11338;SDS011;5724;42.684;23.252;2023-04-03T05:51:53;5.93;;;4.93;;
11338;SDS011;5724;42.684;23.252;2023-04-03T05:54:21;5.87;;;5.27;;
11338;SDS011;5724;42.684;23.252;2023-04-03T05:56:49;7.57;;;6.17;;
11338;SDS011;5724;42.684;23.252;2023-04-03T05:59:15;11.93;;;6.70;;
11338;SDS011;5724;42.684;23.252;2023-04-03T06:01:42;8.33;;;7.43;;
11338;SDS011;5724;42.684;23.252;2023-04-03T06:04:07;10.83;;;7.70;;
11338;SDS011;5724;42.684;23.252;2023-04-03T06:06:47;11.30;;;8.30;;
11338;SDS011;5724;42.684;23.252;2023-04-03T06:09:16;7.10;;;6.50;;
11338;SDS011;5724;42.684;23.252;2023-04-03T06:11:42;8.53;;;5.07;;
11338;SDS011;5724;42.684;23.252;2023-04-03T06:14:08;5.60;;;5.03;;
11338;SDS011;5724;42.684;23.252;2023-04-03T06:16:35;8.53;;;4.80;;
11338;SDS011;5724;42.684;23.252;2023-04-03T06:19:01;5.87;;;4.73;;
11338;SDS011;5724;42.684;23.252;2023-04-03T06:21:27;8.50;;;4.80;;
11338;SDS011;5724;42.684;23.252;2023-04-03T06:23:52;4.00;;;3.30;;
11338;SDS011;5724;42.684;23.252;2023-04-03T06:26:18;5.93;;;3.63;;
11338;SDS011;5724;42.684;23.252;2023-04-03T06:28:43;4.30;;;3.60;;
11338;SDS011;5724;42.684;23.252;2023-04-03T06:31:09;6.97;;;4.27;;
11338;SDS011;5724;42.684;23.252;2023-04-03T06:33:34;3.90;;;3.60;;
11338;SDS011;5724;42.684;23.252;2023-04-03T06:36:02;7.73;;;5.43;;
11338;SDS011;5724;42.684;23.252;2023-04-03T06:38:29;7.53;;;6.57;;
11338;SDS011;5724;42.684;23.252;2023-04-03T06:40:55;6.37;;;5.00;;
11338;SDS011;5724;42.684;23.252;2023-04-03T06:43:21;5.20;;;4.67;;
11338;SDS011;5724;42.684;23.252;2023-04-03T06:45:46;5.37;;;4.87;;
11338;SDS011;5724;42.684;23.252;2023-04-03T06:48:12;5.30;;;4.30;;
11338;SDS011;5724;42.684;23.252;2023-04-03T06:50:38;4.77;;;4.30;;
11338;SDS011;5724;42.684;23.252;2023-04-03T06:53:03;4.70;;;4.30;;
11338;SDS011;5724;42.684;23.252;2023-04-03T06:55:29;6.03;;;3.63;;
11338;SDS011;5724;42.684;23.252;2023-04-03T06:57:55;4.30;;;3.90;;
11338;SDS011;5724;42.684;23.252;2023-04-03T07:00:20;4.03;;;3.57;;
11338;SDS011;5724;42.684;23.252;2023-04-03T07:02:46;3.87;;;3.57;;
11338;SDS011;5724;42.684;23.252;2023-04-03T07:05:12;4.03;;;3.60;;
11338;SDS011;5724;42.684;23.252;2023-04-03T07:07:38;3.40;;;3.20;;
11338;SDS011;5724;42.684;23.252;2023-04-03T07:10:05;3.80;;;3.50;;
11338;SDS011;5724;42.684;23.252;2023-04-03T07:12:32;11.43;;;4.37;;
11338;SDS011;5724;42.684;23.252;2023-04-03T07:14:58;7.53;;;3.80;;
11338;SDS011;5724;42.684;23.252;2023-04-03T07:17:24;9.93;;;5.20;;
11338;SDS011;5724;42.684;23.252;2023-04-03T07:19:50;5.77;;;4.73;;
11338;SDS011;5724;42.684;23.252;2023-04-03T07:22:15;3.97;;;3.67;;
11338;SDS011;5724;42.684;23.252;2023-04-03T07:24:41;3.83;;;3.53;;
11338;SDS011;5724;42.684;23.252;2023-04-03T07:27:07;2.63;;;2.43;;
11338;SDS011;5724;42.684;23.252;2023-04-03T07:29:33;3.57;;;3.27;;
11338;SDS011;5724;42.684;23.252;2023-04-03T07:32:00;2.85;;;2.63;;
11338;SDS011;5724;42.684;23.252;2023-04-03T07:34:26;3.42;;;2.45;;
11338;SDS011;5724;42.684;23.252;2023-04-03T07:36:52;3.28;;;2.22;;
11338;SDS011;5724;42.684;23.252;2023-04-03T07:39:17;3.20;;;2.90;;
11338;SDS011;5724;42.684;23.252;2023-04-03T07:41:44;3.45;;;3.15;;
11338;SDS011;5724;42.684;23.252;2023-04-03T07:44:09;5.47;;;3.40;;
11338;SDS011;5724;42.684;23.252;2023-04-03T07:46:35;4.93;;;4.30;;
11338;SDS011;5724;42.684;23.252;2023-04-03T07:49:01;4.63;;;2.88;;
11338;SDS011;5724;42.684;23.252;2023-04-03T07:51:27;3.43;;;3.23;;
11338;SDS011;5724;42.684;23.252;2023-04-03T07:53:54;2.50;;;2.40;;
11338;SDS011;5724;42.684;23.252;2023-04-03T07:56:20;4.33;;;2.87;;
11338;SDS011;5724;42.684;23.252;2023-04-03T07:58:45;6.60;;;6.10;;
11338;SDS011;5724;42.684;23.252;2023-04-03T08:01:11;2.10;;;2.00;;
11338;SDS011;5724;42.684;23.252;2023-04-03T08:03:36;2.23;;;2.13;;
11338;SDS011;5724;42.684;23.252;2023-04-03T08:06:04;2.60;;;2.40;;
11338;SDS011;5724;42.684;23.252;2023-04-03T08:08:31;2.83;;;2.50;;
11338;SDS011;5724;42.684;23.252;2023-04-03T08:10:58;2.50;;;2.25;;
11338;SDS011;5724;42.684;23.252;2023-04-03T08:13:24;2.50;;;2.30;;
11338;SDS011;5724;42.684;23.252;2023-04-03T08:15:50;5.15;;;4.65;;
11338;SDS011;5724;42.684;23.252;2023-04-03T08:18:16;6.60;;;6.00;;
11338;SDS011;5724;42.684;23.252;2023-04-03T08:20:42;9.55;;;7.43;;
11338;SDS011;5724;42.684;23.252;2023-04-03T08:23:07;7.45;;;6.95;;
11338;SDS011;5724;42.684;23.252;2023-04-03T08:25:34;7.57;;;6.72;;
11338;SDS011;5724;42.684;23.252;2023-04-03T08:28:02;7.95;;;7.07;;
11338;SDS011;5724;42.684;23.252;2023-04-03T08:30:28;8.20;;;6.00;;
11338;SDS011;5724;42.684;23.252;2023-04-03T08:32:54;5.93;;;5.53;;
11338;SDS011;5724;42.684;23.252;2023-04-03T08:35:20;6.38;;;5.70;;
11338;SDS011;5724;42.684;23.252;2023-04-03T08:37:45;7.57;;;5.28;;
11338;SDS011;5724;42.684;23.252;2023-04-03T08:40:15;6.75;;;6.25;;
11338;SDS011;5724;42.684;23.252;2023-04-03T08:48:11;9.70;;;7.80;;
11338;SDS011;5724;42.684;23.252;2023-04-03T08:50:41;10.23;;;7.80;;
11338;SDS011;5724;42.684;23.252;2023-04-03T08:53:15;8.82;;;7.75;;
11338;SDS011;5724;42.684;23.252;2023-04-03T08:55:46;12.57;;;8.85;;
11338;SDS011;5724;42.684;23.252;2023-04-03T09:00:46;13.32;;;9.68;;
11338;SDS011;5724;42.684;23.252;2023-04-03T09:03:16;11.10;;;8.82;;
11338;SDS011;5724;42.684;23.252;2023-04-03T09:05:48;14.55;;;9.38;;
11338;SDS011;5724;42.684;23.252;2023-04-03T09:08:26;12.65;;;9.57;;
11338;SDS011;5724;42.684;23.252;2023-04-03T09:11:42;12.50;;;9.68;;
11338;SDS011;5724;42.684;23.252;2023-04-03T09:16:55;14.50;;;9.93;;
11338;SDS011;5724;42.684;23.252;2023-04-03T09:21:49;13.35;;;8.70;;
11338;SDS011;5724;42.684;23.252;2023-04-03T09:24:15;13.55;;;9.00;;
11338;SDS011;5724;42.684;23.252;2023-04-03T09:27:24;9.88;;;8.85;;
11338;SDS011;5724;42.684;23.252;2023-04-03T09:29:33;10.75;;;9.68;;
11338;SDS011;5724;42.684;23.252;2023-04-03T09:35:01;15.38;;;11.90;;
11338;SDS011;5724;42.684;23.252;2023-04-03T09:37:44;13.68;;;11.30;;
11338;SDS011;5724;42.684;23.252;2023-04-03T09:40:27;14.43;;;10.00;;
11338;SDS011;5724;42.684;23.252;2023-04-03T09:45:47;21.15;;;14.23;;
11338;SDS011;5724;42.684;23.252;2023-04-03T09:53:27;12.52;;;9.05;;
11338;SDS011;5724;42.684;23.252;2023-04-03T09:58:42;12.05;;;8.93;;
11338;SDS011;5724;42.684;23.252;2023-04-03T10:01:43;9.27;;;8.30;;
11338;SDS011;5724;42.684;23.252;2023-04-03T10:06:48;11.45;;;8.70;;
11338;SDS011;5724;42.684;23.252;2023-04-03T10:12:27;8.88;;;8.18;;
11338;SDS011;5724;42.684;23.252;2023-04-03T10:14:56;12.50;;;11.02;;
11338;SDS011;5724;42.684;23.252;2023-04-03T10:20:30;7.53;;;6.88;;
11338;SDS011;5724;42.684;23.252;2023-04-03T10:47:05;7.63;;;6.80;;
11338;SDS011;5724;42.684;23.252;2023-04-03T10:49:48;11.15;;;9.38;;
11338;SDS011;5724;42.684;23.252;2023-04-03T10:52:39;7.00;;;5.13;;
11338;SDS011;5724;42.684;23.252;2023-04-03T10:57:50;5.00;;;4.50;;
11338;SDS011;5724;42.684;23.252;2023-04-03T11:00:16;4.53;;;4.13;;
11338;SDS011;5724;42.684;23.252;2023-04-03T11:02:57;4.05;;;3.75;;
11338;SDS011;5724;42.684;23.252;2023-04-03T11:05:29;4.50;;;3.80;;
11338;SDS011;5724;42.684;23.252;2023-04-03T11:07:55;7.97;;;6.57;;
11338;SDS011;5724;42.684;23.252;2023-04-03T11:13:17;5.35;;;4.10;;
11338;SDS011;5724;42.684;23.252;2023-04-03T11:15:44;4.53;;;4.22;;
11338;SDS011;5724;42.684;23.252;2023-04-03T11:18:19;7.47;;;4.78;;
11338;SDS011;5724;42.684;23.252;2023-04-03T11:20:57;7.13;;;3.90;;
11338;SDS011;5724;42.684;23.252;2023-04-03T11:23:31;5.30;;;4.80;;
11338;SDS011;5724;42.684;23.252;2023-04-03T11:26:07;3.67;;;3.28;;
11338;SDS011;5724;42.684;23.252;2023-04-03T11:28:36;3.97;;;3.17;;
11338;SDS011;5724;42.684;23.252;2023-04-03T11:34:05;3.80;;;3.60;;
11338;SDS011;5724;42.684;23.252;2023-04-03T11:36:58;3.95;;;3.65;;
11338;SDS011;5724;42.684;23.252;2023-04-03T11:39:30;4.30;;;3.60;;
11338;SDS011;5724;42.684;23.252;2023-04-03T11:42:12;4.03;;;3.78;;
11338;SDS011;5724;42.684;23.252;2023-04-03T11:44:44;10.60;;;8.60;;
11338;SDS011;5724;42.684;23.252;2023-04-03T11:47:10;6.15;;;5.68;;
11338;SDS011;5724;42.684;23.252;2023-04-03T11:49:58;3.80;;;3.53;;
11338;SDS011;5724;42.684;23.252;2023-04-03T12:13:39;4.45;;;4.15;;
11338;SDS011;5724;42.684;23.252;2023-04-03T12:16:05;4.82;;;4.53;;
11338;SDS011;5724;42.684;23.252;2023-04-03T12:21:06;3.72;;;3.50;;
11338;SDS011;5724;42.684;23.252;2023-04-03T12:23:33;3.78;;;2.90;;
11338;SDS011;5724;42.684;23.252;2023-04-03T12:28:34;3.30;;;3.10;;
11338;SDS011;5724;42.684;23.252;2023-04-03T12:31:02;3.60;;;3.40;;
11338;SDS011;5724;42.684;23.252;2023-04-03T12:33:38;3.50;;;3.30;;
11338;SDS011;5724;42.684;23.252;2023-04-03T12:36:35;3.92;;;3.70;;
11338;SDS011;5724;42.684;23.252;2023-04-03T12:39:18;4.05;;;3.75;;
11338;SDS011;5724;42.684;23.252;2023-04-03T12:41:52;3.38;;;3.28;;
11338;SDS011;5724;42.684;23.252;2023-04-03T12:47:42;3.72;;;3.53;;
11338;SDS011;5724;42.684;23.252;2023-04-03T12:50:17;4.10;;;3.90;;
11338;SDS011;5724;42.684;23.252;2023-04-03T12:53:31;3.45;;;3.25;;
11338;SDS011;5724;42.684;23.252;2023-04-03T12:55:39;3.72;;;3.42;;
11338;SDS011;5724;42.684;23.252;2023-04-03T12:58:15;3.67;;;3.40;;
11338;SDS011;5724;42.684;23.252;2023-04-03T13:00:41;3.30;;;3.10;;
11338;SDS011;5724;42.684;23.252;2023-04-03T13:03:17;3.67;;;3.37;;
11338;SDS011;5724;42.684;23.252;2023-04-03T13:05:47;3.47;;;3.28;;
11338;SDS011;5724;42.684;23.252;2023-04-03T13:08:13;3.60;;;3.40;;
11338;SDS011;5724;42.684;23.252;2023-04-03T13:10:55;3.90;;;3.57;;
11338;SDS011;5724;42.684;23.252;2023-04-03T13:13:21;4.20;;;4.00;;
11338;SDS011;5724;42.684;23.252;2023-04-03T13:15:48;4.20;;;3.90;;
11338;SDS011;5724;42.684;23.252;2023-04-03T13:18:29;3.60;;;3.40;;
11338;SDS011;5724;42.684;23.252;2023-04-03T13:20:58;4.33;;;4.03;;
11338;SDS011;5724;42.684;23.252;2023-04-03T13:23:30;4.40;;;4.10;;
11338;SDS011;5724;42.684;23.252;2023-04-03T13:26:00;4.90;;;4.50;;
11338;SDS011;5724;42.684;23.252;2023-04-03T13:28:28;4.47;;;4.17;;
11338;SDS011;5724;42.684;23.252;2023-04-03T13:33:26;4.83;;;4.30;;
11338;SDS011;5724;42.684;23.252;2023-04-03T13:35:54;5.20;;;4.80;;
11338;SDS011;5724;42.684;23.252;2023-04-03T13:38:24;5.23;;;4.93;;
11338;SDS011;5724;42.684;23.252;2023-04-03T13:40:54;5.47;;;5.13;;
11338;SDS011;5724;42.684;23.252;2023-04-03T13:43:26;5.27;;;4.97;;
11338;SDS011;5724;42.684;23.252;2023-04-03T13:45:53;5.10;;;4.80;;
11338;SDS011;5724;42.684;23.252;2023-04-03T13:48:21;5.93;;;5.53;;
11338;SDS011;5724;42.684;23.252;2023-04-03T13:53:18;10.33;;;9.37;;
11338;SDS011;5724;42.684;23.252;2023-04-03T13:58:22;6.20;;;5.83;;
11338;SDS011;5724;42.684;23.252;2023-04-03T14:03:24;10.03;;;9.23;;
11338;SDS011;5724;42.684;23.252;2023-04-03T14:05:53;6.60;;;6.17;;
11338;SDS011;5724;42.684;23.252;2023-04-03T14:08:19;7.00;;;6.50;;
11338;SDS011;5724;42.684;23.252;2023-04-03T14:10:44;6.30;;;5.90;;
11338;SDS011;5724;42.684;23.252;2023-04-03T14:13:15;6.37;;;6.00;;
11338;SDS011;5724;42.684;23.252;2023-04-03T14:15:43;5.93;;;5.60;;
11338;SDS011;5724;42.684;23.252;2023-04-03T14:18:13;7.00;;;6.40;;
11338;SDS011;5724;42.684;23.252;2023-04-03T14:20:40;5.43;;;5.03;;
11338;SDS011;5724;42.684;23.252;2023-04-03T14:23:06;5.63;;;5.30;;
11338;SDS011;5724;42.684;23.252;2023-04-03T14:25:32;5.77;;;5.27;;
11338;SDS011;5724;42.684;23.252;2023-04-03T14:27:58;5.10;;;4.80;;
11338;SDS011;5724;42.684;23.252;2023-04-03T14:30:32;5.40;;;5.10;;
11338;SDS011;5724;42.684;23.252;2023-04-03T14:32:58;6.23;;;5.73;;
11338;SDS011;5724;42.684;23.252;2023-04-03T14:35:25;5.77;;;5.37;;
11338;SDS011;5724;42.684;23.252;2023-04-03T14:37:51;5.47;;;4.70;;
11338;SDS011;5724;42.684;23.252;2023-04-03T14:40:19;5.30;;;5.00;;
11338;SDS011;5724;42.684;23.252;2023-04-03T14:42:48;5.30;;;5.00;;
11338;SDS011;5724;42.684;23.252;2023-04-03T14:45:14;5.27;;;4.97;;
11338;SDS011;5724;42.684;23.252;2023-04-03T14:47:50;6.03;;;5.53;;
11338;SDS011;5724;42.684;23.252;2023-04-03T14:50:19;5.00;;;4.70;;
11338;SDS011;5724;42.684;23.252;2023-04-03T14:52:50;5.00;;;4.67;;
11338;SDS011;5724;42.684;23.252;2023-04-03T14:55:18;4.63;;;4.23;;
11338;SDS011;5724;42.684;23.252;2023-04-03T14:57:45;5.23;;;4.83;;
11338;SDS011;5724;42.684;23.252;2023-04-03T15:00:14;5.03;;;4.73;;
11338;SDS011;5724;42.684;23.252;2023-04-03T15:02:42;5.23;;;4.83;;
11338;SDS011;5724;42.684;23.252;2023-04-03T15:05:08;4.97;;;4.77;;
11338;SDS011;5724;42.684;23.252;2023-04-03T15:07:39;7.83;;;7.23;;
11338;SDS011;5724;42.684;23.252;2023-04-03T15:12:46;6.30;;;5.90;;
11338;SDS011;5724;42.684;23.252;2023-04-03T15:15:13;5.10;;;4.80;;
11338;SDS011;5724;42.684;23.252;2023-04-03T15:17:39;4.53;;;4.20;;
11338;SDS011;5724;42.684;23.252;2023-04-03T15:20:16;4.83;;;4.53;;
11338;SDS011;5724;42.684;23.252;2023-04-03T15:22:44;4.97;;;4.67;;
11338;SDS011;5724;42.684;23.252;2023-04-03T15:25:10;4.80;;;4.50;;
11338;SDS011;5724;42.684;23.252;2023-04-03T15:27:36;4.40;;;4.20;;
11338;SDS011;5724;42.684;23.252;2023-04-03T15:30:03;4.60;;;4.40;;
11338;SDS011;5724;42.684;23.252;2023-04-03T15:32:30;4.87;;;4.50;;
11338;SDS011;5724;42.684;23.252;2023-04-03T15:34:56;5.37;;;4.97;;
11338;SDS011;5724;42.684;23.252;2023-04-03T15:37:21;6.10;;;5.70;;
11338;SDS011;5724;42.684;23.252;2023-04-03T15:39:47;5.00;;;4.80;;
11338;SDS011;5724;42.684;23.252;2023-04-03T15:42:12;8.07;;;7.57;;
11338;SDS011;5724;42.684;23.252;2023-04-03T15:44:38;7.13;;;6.63;;
11338;SDS011;5724;42.684;23.252;2023-04-03T15:47:03;8.03;;;7.53;;
11338;SDS011;5724;42.684;23.252;2023-04-03T15:49:30;4.70;;;4.40;;
11338;SDS011;5724;42.684;23.252;2023-04-03T15:51:57;7.27;;;6.77;;
11338;SDS011;5724;42.684;23.252;2023-04-03T15:54:23;4.67;;;4.47;;
11338;SDS011;5724;42.684;23.252;2023-04-03T15:56:49;4.57;;;4.37;;
11338;SDS011;5724;42.684;23.252;2023-04-03T15:59:15;4.10;;;3.90;;
11338;SDS011;5724;42.684;23.252;2023-04-03T16:01:40;4.00;;;3.70;;
11338;SDS011;5724;42.684;23.252;2023-04-03T16:04:07;3.23;;;3.03;;
11338;SDS011;5724;42.684;23.252;2023-04-03T16:06:34;4.60;;;4.30;;
11338;SDS011;5724;42.684;23.252;2023-04-03T16:09:00;4.90;;;4.60;;
11338;SDS011;5724;42.684;23.252;2023-04-03T16:11:26;5.70;;;5.30;;
11338;SDS011;5724;42.684;23.252;2023-04-03T16:13:52;4.77;;;4.20;;
11338;SDS011;5724;42.684;23.252;2023-04-03T16:16:18;6.03;;;5.53;;
11338;SDS011;5724;42.684;23.252;2023-04-03T16:18:45;3.97;;;3.67;;
11338;SDS011;5724;42.684;23.252;2023-04-03T16:21:12;4.80;;;4.50;;
11338;SDS011;5724;42.684;23.252;2023-04-03T16:23:39;4.40;;;4.20;;
11338;SDS011;5724;42.684;23.252;2023-04-03T16:26:05;4.97;;;4.70;;
11338;SDS011;5724;42.684;23.252;2023-04-03T16:28:30;4.70;;;4.50;;
11338;SDS011;5724;42.684;23.252;2023-04-03T16:30:56;5.17;;;4.77;;
11338;SDS011;5724;42.684;23.252;2023-04-03T16:33:22;5.20;;;4.90;;
11338;SDS011;5724;42.684;23.252;2023-04-03T16:35:49;13.43;;;12.20;;
11338;SDS011;5724;42.684;23.252;2023-04-03T16:38:15;10.10;;;9.27;;
11338;SDS011;5724;42.684;23.252;2023-04-03T16:40:41;13.97;;;12.70;;
11338;SDS011;5724;42.684;23.252;2023-04-03T16:43:07;10.97;;;9.97;;
11338;SDS011;5724;42.684;23.252;2023-04-03T16:45:32;12.27;;;9.83;;
11338;SDS011;5724;42.684;23.252;2023-04-03T16:47:57;7.63;;;6.90;;
11338;SDS011;5724;42.684;23.252;2023-04-03T16:50:23;7.17;;;6.67;;
11338;SDS011;5724;42.684;23.252;2023-04-03T16:52:48;6.57;;;6.13;;